sensor_id;sensor_type;location;lat;lon;timestamp;P1;durP1;ratioP1;P2;durP2;ratioP2
32872;SDS011;19224;52.462;16.898;2023-11-18T00:02:16;16.10;;;9.55;;
32872;SDS011;19224;52.462;16.898;2023-11-18T00:04:46;14.87;;;9.18;;
32872;SDS011;19224;52.462;16.898;2023-11-18T00:07:17;18.20;;;10.80;;
32872;SDS011;19224;52.462;16.898;2023-11-18T00:09:47;17.35;;;10.98;;
32872;SDS011;19224;52.462;16.898;2023-11-18T00:12:18;19.23;;;11.60;;
32872;SDS011;19224;52.462;16.898;2023-11-18T00:14:48;18.10;;;10.65;;
32872;SDS011;19224;52.462;16.898;2023-11-18T00:17:18;20.15;;;11.73;;
32872;SDS011;19224;52.462;16.898;2023-11-18T00:19:50;18.45;;;11.00;;
32872;SDS011;19224;52.462;16.898;2023-11-18T00:22:21;20.90;;;11.70;;
32872;SDS011;19224;52.462;16.898;2023-11-18T00:24:51;19.02;;;10.75;;
32872;SDS011;19224;52.462;16.898;2023-11-18T00:27:23;20.80;;;11.10;;
32872;SDS011;19224;52.462;16.898;2023-11-18T00:29:53;22.00;;;11.38;;
32872;SDS011;19224;52.462;16.898;2023-11-18T00:32:23;22.95;;;12.07;;
32872;SDS011;19224;52.462;16.898;2023-11-18T00:34:53;19.37;;;12.40;;
32872;SDS011;19224;52.462;16.898;2023-11-18T00:37:24;18.25;;;12.53;;
32872;SDS011;19224;52.462;16.898;2023-11-18T00:39:54;20.50;;;12.35;;
32872;SDS011;19224;52.462;16.898;2023-11-18T00:42:25;21.10;;;13.43;;
32872;SDS011;19224;52.462;16.898;2023-11-18T00:44:55;22.30;;;12.73;;
32872;SDS011;19224;52.462;16.898;2023-11-18T00:47:26;22.65;;;13.80;;
32872;SDS011;19224;52.462;16.898;2023-11-18T00:49:56;21.00;;;12.88;;
32872;SDS011;19224;52.462;16.898;2023-11-18T00:52:28;22.58;;;13.80;;
32872;SDS011;19224;52.462;16.898;2023-11-18T00:54:58;24.67;;;14.60;;
32872;SDS011;19224;52.462;16.898;2023-11-18T00:57:29;24.80;;;14.43;;
32872;SDS011;19224;52.462;16.898;2023-11-18T00:59:59;24.18;;;14.30;;
32872;SDS011;19224;52.462;16.898;2023-11-18T01:02:30;26.20;;;14.90;;
32872;SDS011;19224;52.462;16.898;2023-11-18T01:05:01;23.70;;;14.10;;
32872;SDS011;19224;52.462;16.898;2023-11-18T01:07:31;23.50;;;14.53;;
32872;SDS011;19224;52.462;16.898;2023-11-18T01:10:02;23.25;;;14.20;;
32872;SDS011;19224;52.462;16.898;2023-11-18T01:12:34;21.05;;;13.50;;
32872;SDS011;19224;52.462;16.898;2023-11-18T01:15:05;26.27;;;16.25;;
32872;SDS011;19224;52.462;16.898;2023-11-18T01:17:38;23.80;;;15.10;;
32872;SDS011;19224;52.462;16.898;2023-11-18T01:20:09;26.42;;;15.48;;
32872;SDS011;19224;52.462;16.898;2023-11-18T01:22:41;23.87;;;15.23;;
32872;SDS011;19224;52.462;16.898;2023-11-18T01:25:13;29.30;;;16.12;;
32872;SDS011;19224;52.462;16.898;2023-11-18T01:27:46;30.80;;;16.75;;
32872;SDS011;19224;52.462;16.898;2023-11-18T01:30:16;25.40;;;14.93;;
32872;SDS011;19224;52.462;16.898;2023-11-18T01:32:47;28.07;;;16.00;;
32872;SDS011;19224;52.462;16.898;2023-11-18T01:35:17;27.52;;;15.43;;
32872;SDS011;19224;52.462;16.898;2023-11-18T01:37:47;31.23;;;16.67;;
32872;SDS011;19224;52.462;16.898;2023-11-18T01:40:17;30.43;;;16.95;;
32872;SDS011;19224;52.462;16.898;2023-11-18T01:42:47;30.88;;;16.57;;
32872;SDS011;19224;52.462;16.898;2023-11-18T01:45:18;32.98;;;16.95;;
32872;SDS011;19224;52.462;16.898;2023-11-18T01:47:49;33.95;;;17.32;;
32872;SDS011;19224;52.462;16.898;2023-11-18T01:50:21;32.17;;;16.85;;
32872;SDS011;19224;52.462;16.898;2023-11-18T01:52:53;35.88;;;17.17;;
32872;SDS011;19224;52.462;16.898;2023-11-18T01:55:23;36.10;;;18.02;;
32872;SDS011;19224;52.462;16.898;2023-11-18T01:57:53;39.13;;;18.55;;
32872;SDS011;19224;52.462;16.898;2023-11-18T02:00:25;36.65;;;18.20;;
32872;SDS011;19224;52.462;16.898;2023-11-18T02:02:58;38.02;;;19.40;;
32872;SDS011;19224;52.462;16.898;2023-11-18T02:05:29;39.33;;;19.12;;
32872;SDS011;19224;52.462;16.898;2023-11-18T02:08:01;42.93;;;19.55;;
32872;SDS011;19224;52.462;16.898;2023-11-18T02:10:35;40.10;;;19.52;;
32872;SDS011;19224;52.462;16.898;2023-11-18T02:13:22;43.08;;;21.05;;
32872;SDS011;19224;52.462;16.898;2023-11-18T02:15:55;39.13;;;19.92;;
32872;SDS011;19224;52.462;16.898;2023-11-18T02:18:29;36.70;;;19.12;;
32872;SDS011;19224;52.462;16.898;2023-11-18T02:21:01;40.33;;;18.52;;
32872;SDS011;19224;52.462;16.898;2023-11-18T02:23:32;37.35;;;18.73;;
32872;SDS011;19224;52.462;16.898;2023-11-18T02:26:04;37.23;;;18.12;;
32872;SDS011;19224;52.462;16.898;2023-11-18T02:28:35;36.20;;;17.40;;
32872;SDS011;19224;52.462;16.898;2023-11-18T02:31:09;37.25;;;17.70;;
32872;SDS011;19224;52.462;16.898;2023-11-18T02:33:48;33.15;;;16.57;;
32872;SDS011;19224;52.462;16.898;2023-11-18T02:36:30;33.00;;;16.00;;
32872;SDS011;19224;52.462;16.898;2023-11-18T02:39:04;33.35;;;16.30;;
32872;SDS011;19224;52.462;16.898;2023-11-18T02:41:38;34.40;;;16.75;;
32872;SDS011;19224;52.462;16.898;2023-11-18T02:44:12;33.35;;;16.20;;
32872;SDS011;19224;52.462;16.898;2023-11-18T02:46:45;33.63;;;15.90;;
32872;SDS011;19224;52.462;16.898;2023-11-18T02:49:16;28.55;;;14.85;;
32872;SDS011;19224;52.462;16.898;2023-11-18T02:51:47;33.55;;;16.55;;
32872;SDS011;19224;52.462;16.898;2023-11-18T02:54:17;34.10;;;16.02;;
32872;SDS011;19224;52.462;16.898;2023-11-18T02:56:47;31.85;;;15.58;;
32872;SDS011;19224;52.462;16.898;2023-11-18T02:59:19;32.30;;;16.17;;
32872;SDS011;19224;52.462;16.898;2023-11-18T03:01:53;32.25;;;15.78;;
32872;SDS011;19224;52.462;16.898;2023-11-18T03:04:24;29.27;;;14.73;;
32872;SDS011;19224;52.462;16.898;2023-11-18T03:06:54;28.50;;;15.20;;
32872;SDS011;19224;52.462;16.898;2023-11-18T03:09:25;33.58;;;16.50;;
32872;SDS011;19224;52.462;16.898;2023-11-18T03:11:55;28.60;;;14.85;;
32872;SDS011;19224;52.462;16.898;2023-11-18T03:14:27;30.72;;;15.80;;
32872;SDS011;19224;52.462;16.898;2023-11-18T03:16:57;27.25;;;15.23;;
32872;SDS011;19224;52.462;16.898;2023-11-18T03:19:27;31.23;;;15.93;;
32872;SDS011;19224;52.462;16.898;2023-11-18T03:21:57;32.78;;;15.10;;
32872;SDS011;19224;52.462;16.898;2023-11-18T03:24:28;29.72;;;15.32;;
32872;SDS011;19224;52.462;16.898;2023-11-18T03:26:58;31.50;;;15.45;;
32872;SDS011;19224;52.462;16.898;2023-11-18T03:29:29;29.45;;;15.53;;
32872;SDS011;19224;52.462;16.898;2023-11-18T03:31:59;26.40;;;14.45;;
32872;SDS011;19224;52.462;16.898;2023-11-18T03:34:29;32.48;;;14.93;;
32872;SDS011;19224;52.462;16.898;2023-11-18T03:37:00;26.42;;;13.98;;
32872;SDS011;19224;52.462;16.898;2023-11-18T03:39:30;27.02;;;14.78;;
32872;SDS011;19224;52.462;16.898;2023-11-18T03:42:00;26.90;;;14.70;;
32872;SDS011;19224;52.462;16.898;2023-11-18T03:44:30;27.07;;;14.75;;
32872;SDS011;19224;52.462;16.898;2023-11-18T03:47:01;27.58;;;14.63;;
32872;SDS011;19224;52.462;16.898;2023-11-18T03:49:31;27.90;;;14.28;;
32872;SDS011;19224;52.462;16.898;2023-11-18T03:52:02;23.90;;;13.45;;
32872;SDS011;19224;52.462;16.898;2023-11-18T03:54:33;27.45;;;14.18;;
32872;SDS011;19224;52.462;16.898;2023-11-18T03:57:03;26.33;;;13.53;;
32872;SDS011;19224;52.462;16.898;2023-11-18T03:59:34;26.50;;;13.75;;
32872;SDS011;19224;52.462;16.898;2023-11-18T04:02:04;23.95;;;13.10;;
32872;SDS011;19224;52.462;16.898;2023-11-18T04:04:34;26.60;;;13.48;;
32872;SDS011;19224;52.462;16.898;2023-11-18T04:07:05;26.35;;;13.25;;
32872;SDS011;19224;52.462;16.898;2023-11-18T04:09:35;25.20;;;12.63;;
32872;SDS011;19224;52.462;16.898;2023-11-18T04:12:05;22.15;;;12.35;;
32872;SDS011;19224;52.462;16.898;2023-11-18T04:14:38;24.40;;;11.97;;
32872;SDS011;19224;52.462;16.898;2023-11-18T04:17:08;26.35;;;12.25;;
32872;SDS011;19224;52.462;16.898;2023-11-18T04:19:39;25.35;;;12.45;;
32872;SDS011;19224;52.462;16.898;2023-11-18T04:22:09;22.58;;;11.60;;
32872;SDS011;19224;52.462;16.898;2023-11-18T04:24:39;21.07;;;11.95;;
32872;SDS011;19224;52.462;16.898;2023-11-18T04:27:11;20.60;;;10.93;;
32872;SDS011;19224;52.462;16.898;2023-11-18T04:29:42;20.72;;;11.35;;
32872;SDS011;19224;52.462;16.898;2023-11-18T04:32:12;20.52;;;11.25;;
32872;SDS011;19224;52.462;16.898;2023-11-18T04:34:43;19.17;;;11.25;;
32872;SDS011;19224;52.462;16.898;2023-11-18T04:37:14;17.95;;;10.30;;
32872;SDS011;19224;52.462;16.898;2023-11-18T04:39:44;16.85;;;10.32;;
32872;SDS011;19224;52.462;16.898;2023-11-18T04:42:14;19.37;;;10.85;;
32872;SDS011;19224;52.462;16.898;2023-11-18T04:44:44;18.30;;;10.93;;
32872;SDS011;19224;52.462;16.898;2023-11-18T04:47:15;17.80;;;10.00;;
32872;SDS011;19224;52.462;16.898;2023-11-18T04:49:47;19.65;;;10.23;;
32872;SDS011;19224;52.462;16.898;2023-11-18T04:52:17;19.70;;;9.63;;
32872;SDS011;19224;52.462;16.898;2023-11-18T04:54:48;17.80;;;9.93;;
32872;SDS011;19224;52.462;16.898;2023-11-18T04:57:18;16.57;;;9.50;;
32872;SDS011;19224;52.462;16.898;2023-11-18T04:59:48;17.95;;;9.78;;
32872;SDS011;19224;52.462;16.898;2023-11-18T05:02:19;19.25;;;10.03;;
32872;SDS011;19224;52.462;16.898;2023-11-18T05:04:49;16.87;;;9.88;;
32872;SDS011;19224;52.462;16.898;2023-11-18T05:07:19;20.68;;;11.05;;
32872;SDS011;19224;52.462;16.898;2023-11-18T05:09:49;17.65;;;10.40;;
32872;SDS011;19224;52.462;16.898;2023-11-18T05:12:20;20.97;;;10.28;;
32872;SDS011;19224;52.462;16.898;2023-11-18T05:14:50;17.35;;;10.50;;
32872;SDS011;19224;52.462;16.898;2023-11-18T05:17:21;17.48;;;10.63;;
32872;SDS011;19224;52.462;16.898;2023-11-18T05:19:53;18.32;;;10.95;;
32872;SDS011;19224;52.462;16.898;2023-11-18T05:22:24;18.12;;;10.18;;
32872;SDS011;19224;52.462;16.898;2023-11-18T05:24:54;24.35;;;10.40;;
32872;SDS011;19224;52.462;16.898;2023-11-18T05:27:24;18.02;;;10.63;;
32872;SDS011;19224;52.462;16.898;2023-11-18T05:29:55;17.32;;;10.55;;
32872;SDS011;19224;52.462;16.898;2023-11-18T05:32:27;17.32;;;10.18;;
32872;SDS011;19224;52.462;16.898;2023-11-18T05:35:01;17.32;;;9.95;;
32872;SDS011;19224;52.462;16.898;2023-11-18T05:37:38;18.05;;;10.50;;
32872;SDS011;19224;52.462;16.898;2023-11-18T05:40:09;14.65;;;8.70;;
32872;SDS011;19224;52.462;16.898;2023-11-18T05:42:41;15.48;;;8.83;;
32872;SDS011;19224;52.462;16.898;2023-11-18T05:45:13;15.08;;;8.63;;
32872;SDS011;19224;52.462;16.898;2023-11-18T05:47:48;11.12;;;6.47;;
32872;SDS011;19224;52.462;16.898;2023-11-18T05:50:18;13.10;;;6.42;;
32872;SDS011;19224;52.462;16.898;2023-11-18T05:52:49;12.10;;;6.97;;
32872;SDS011;19224;52.462;16.898;2023-11-18T05:55:20;11.70;;;6.00;;
32872;SDS011;19224;52.462;16.898;2023-11-18T05:57:50;10.00;;;5.70;;
32872;SDS011;19224;52.462;16.898;2023-11-18T06:00:20;8.38;;;5.62;;
32872;SDS011;19224;52.462;16.898;2023-11-18T06:02:52;9.38;;;5.75;;
32872;SDS011;19224;52.462;16.898;2023-11-18T06:05:24;10.53;;;5.55;;
32872;SDS011;19224;52.462;16.898;2023-11-18T06:07:56;10.18;;;5.75;;
32872;SDS011;19224;52.462;16.898;2023-11-18T06:10:26;10.55;;;6.03;;
32872;SDS011;19224;52.462;16.898;2023-11-18T06:12:58;10.10;;;6.00;;
32872;SDS011;19224;52.462;16.898;2023-11-18T06:15:30;11.75;;;6.65;;
32872;SDS011;19224;52.462;16.898;2023-11-18T06:18:02;12.85;;;7.50;;
32872;SDS011;19224;52.462;16.898;2023-11-18T06:20:34;12.00;;;7.62;;
32872;SDS011;19224;52.462;16.898;2023-11-18T06:23:06;14.30;;;7.95;;
32872;SDS011;19224;52.462;16.898;2023-11-18T06:25:37;13.72;;;8.20;;
32872;SDS011;19224;52.462;16.898;2023-11-18T06:28:08;17.20;;;9.00;;
32872;SDS011;19224;52.462;16.898;2023-11-18T06:30:38;17.02;;;9.83;;
32872;SDS011;19224;52.462;16.898;2023-11-18T06:33:09;18.27;;;10.08;;
32872;SDS011;19224;52.462;16.898;2023-11-18T06:35:40;18.67;;;11.05;;
32872;SDS011;19224;52.462;16.898;2023-11-18T06:38:12;18.00;;;10.45;;
32872;SDS011;19224;52.462;16.898;2023-11-18T06:40:43;21.55;;;11.43;;
32872;SDS011;19224;52.462;16.898;2023-11-18T06:43:14;19.32;;;10.75;;
32872;SDS011;19224;52.462;16.898;2023-11-18T06:45:44;23.55;;;12.33;;
32872;SDS011;19224;52.462;16.898;2023-11-18T06:48:16;20.88;;;12.10;;
32872;SDS011;19224;52.462;16.898;2023-11-18T06:50:47;21.10;;;12.03;;
32872;SDS011;19224;52.462;16.898;2023-11-18T06:53:18;19.60;;;11.75;;
32872;SDS011;19224;52.462;16.898;2023-11-18T06:55:49;22.55;;;12.60;;
32872;SDS011;19224;52.462;16.898;2023-11-18T06:58:19;22.58;;;13.70;;
32872;SDS011;19224;52.462;16.898;2023-11-18T07:00:51;23.57;;;13.65;;
32872;SDS011;19224;52.462;16.898;2023-11-18T07:03:22;23.18;;;13.45;;
32872;SDS011;19224;52.462;16.898;2023-11-18T07:05:52;20.77;;;12.75;;
32872;SDS011;19224;52.462;16.898;2023-11-18T07:08:23;22.93;;;13.45;;
32872;SDS011;19224;52.462;16.898;2023-11-18T07:10:53;22.80;;;13.32;;
32872;SDS011;19224;52.462;16.898;2023-11-18T07:13:24;24.72;;;13.30;;
32872;SDS011;19224;52.462;16.898;2023-11-18T07:15:54;19.02;;;12.60;;
32872;SDS011;19224;52.462;16.898;2023-11-18T07:18:25;24.40;;;13.35;;
32872;SDS011;19224;52.462;16.898;2023-11-18T07:20:59;20.32;;;12.82;;
32872;SDS011;19224;52.462;16.898;2023-11-18T07:23:31;22.60;;;13.43;;
32872;SDS011;19224;52.462;16.898;2023-11-18T07:26:02;21.87;;;13.55;;
32872;SDS011;19224;52.462;16.898;2023-11-18T07:28:32;22.52;;;13.58;;
32872;SDS011;19224;52.462;16.898;2023-11-18T07:31:03;25.55;;;13.28;;
32872;SDS011;19224;52.462;16.898;2023-11-18T07:33:35;19.05;;;11.95;;
32872;SDS011;19224;52.462;16.898;2023-11-18T07:36:06;19.45;;;12.10;;
32872;SDS011;19224;52.462;16.898;2023-11-18T07:38:39;17.62;;;11.30;;
32872;SDS011;19224;52.462;16.898;2023-11-18T07:41:09;20.12;;;11.70;;
32872;SDS011;19224;52.462;16.898;2023-11-18T07:43:41;16.73;;;11.22;;
32872;SDS011;19224;52.462;16.898;2023-11-18T07:46:13;19.37;;;11.08;;
32872;SDS011;19224;52.462;16.898;2023-11-18T07:48:43;19.65;;;11.53;;
32872;SDS011;19224;52.462;16.898;2023-11-18T07:51:14;15.80;;;10.72;;
32872;SDS011;19224;52.462;16.898;2023-11-18T07:53:44;18.92;;;11.68;;
32872;SDS011;19224;52.462;16.898;2023-11-18T07:56:15;19.52;;;12.13;;
32872;SDS011;19224;52.462;16.898;2023-11-18T07:58:45;19.98;;;11.38;;
32872;SDS011;19224;52.462;16.898;2023-11-18T08:01:17;17.60;;;11.33;;
32872;SDS011;19224;52.462;16.898;2023-11-18T08:03:49;16.97;;;11.30;;
32872;SDS011;19224;52.462;16.898;2023-11-18T08:06:20;19.17;;;11.38;;
32872;SDS011;19224;52.462;16.898;2023-11-18T08:08:52;18.45;;;11.40;;
32872;SDS011;19224;52.462;16.898;2023-11-18T08:11:24;15.35;;;10.48;;
32872;SDS011;19224;52.462;16.898;2023-11-18T08:13:54;16.35;;;10.60;;
32872;SDS011;19224;52.462;16.898;2023-11-18T08:16:26;17.32;;;10.60;;
32872;SDS011;19224;52.462;16.898;2023-11-18T08:18:57;17.95;;;10.65;;
32872;SDS011;19224;52.462;16.898;2023-11-18T08:21:27;18.52;;;10.95;;
32872;SDS011;19224;52.462;16.898;2023-11-18T08:23:57;15.28;;;10.48;;
32872;SDS011;19224;52.462;16.898;2023-11-18T08:26:29;15.10;;;9.83;;
32872;SDS011;19224;52.462;16.898;2023-11-18T08:28:59;16.70;;;10.75;;
32872;SDS011;19224;52.462;16.898;2023-11-18T08:31:30;15.35;;;10.32;;
32872;SDS011;19224;52.462;16.898;2023-11-18T08:34:00;17.45;;;10.88;;
32872;SDS011;19224;52.462;16.898;2023-11-18T08:36:32;23.40;;;10.60;;
32872;SDS011;19224;52.462;16.898;2023-11-18T08:39:03;15.85;;;10.50;;
32872;SDS011;19224;52.462;16.898;2023-11-18T08:41:33;15.20;;;10.08;;
32872;SDS011;19224;52.462;16.898;2023-11-18T08:44:03;15.78;;;10.65;;
32872;SDS011;19224;52.462;16.898;2023-11-18T08:46:34;16.07;;;10.50;;
32872;SDS011;19224;52.462;16.898;2023-11-18T08:49:04;19.27;;;10.82;;
32872;SDS011;19224;52.462;16.898;2023-11-18T08:51:37;15.90;;;9.80;;
32872;SDS011;19224;52.462;16.898;2023-11-18T08:54:08;17.80;;;11.15;;
32872;SDS011;19224;52.462;16.898;2023-11-18T08:56:52;17.32;;;10.63;;
32872;SDS011;19224;52.462;16.898;2023-11-18T08:59:22;15.05;;;10.53;;
32872;SDS011;19224;52.462;16.898;2023-11-18T09:01:58;17.37;;;11.18;;
32872;SDS011;19224;52.462;16.898;2023-11-18T09:04:26;17.17;;;10.45;;
32872;SDS011;19224;52.462;16.898;2023-11-18T09:06:57;17.65;;;10.80;;
32872;SDS011;19224;52.462;16.898;2023-11-18T09:09:28;15.78;;;10.53;;
32872;SDS011;19224;52.462;16.898;2023-11-18T09:12:00;16.05;;;10.88;;
32872;SDS011;19224;52.462;16.898;2023-11-18T09:14:31;17.87;;;11.45;;
32872;SDS011;19224;52.462;16.898;2023-11-18T09:17:01;15.60;;;10.28;;
32872;SDS011;19224;52.462;16.898;2023-11-18T09:19:33;17.15;;;11.38;;
32872;SDS011;19224;52.462;16.898;2023-11-18T09:22:04;17.42;;;10.98;;
32872;SDS011;19224;52.462;16.898;2023-11-18T09:24:34;16.40;;;10.82;;
32872;SDS011;19224;52.462;16.898;2023-11-18T09:27:05;18.00;;;11.40;;
32872;SDS011;19224;52.462;16.898;2023-11-18T09:29:36;16.17;;;10.53;;
32872;SDS011;19224;52.462;16.898;2023-11-18T09:32:07;17.57;;;10.70;;
32872;SDS011;19224;52.462;16.898;2023-11-18T09:34:40;19.87;;;11.63;;
32872;SDS011;19224;52.462;16.898;2023-11-18T09:37:10;16.60;;;11.08;;
32872;SDS011;19224;52.462;16.898;2023-11-18T09:39:40;14.90;;;10.30;;
32872;SDS011;19224;52.462;16.898;2023-11-18T09:42:12;14.70;;;10.10;;
32872;SDS011;19224;52.462;16.898;2023-11-18T09:44:44;15.58;;;9.93;;
32872;SDS011;19224;52.462;16.898;2023-11-18T09:47:16;17.23;;;10.70;;
32872;SDS011;19224;52.462;16.898;2023-11-18T09:49:50;16.27;;;10.20;;
32872;SDS011;19224;52.462;16.898;2023-11-18T09:52:23;17.00;;;10.68;;
32872;SDS011;19224;52.462;16.898;2023-11-18T09:57:37;18.00;;;11.48;;
32872;SDS011;19224;52.462;16.898;2023-11-18T10:00:11;18.10;;;11.35;;
32872;SDS011;19224;52.462;16.898;2023-11-18T10:02:58;16.23;;;10.82;;
32872;SDS011;19224;52.462;16.898;2023-11-18T10:05:33;15.05;;;10.10;;
32872;SDS011;19224;52.462;16.898;2023-11-18T10:08:06;16.85;;;10.55;;
32872;SDS011;19224;52.462;16.898;2023-11-18T10:10:37;16.52;;;10.93;;
32872;SDS011;19224;52.462;16.898;2023-11-18T10:13:09;18.32;;;10.68;;
32872;SDS011;19224;52.462;16.898;2023-11-18T10:15:41;20.80;;;11.20;;
32872;SDS011;19224;52.462;16.898;2023-11-18T10:18:11;17.55;;;11.33;;
32872;SDS011;19224;52.462;16.898;2023-11-18T10:20:44;16.27;;;11.08;;
32872;SDS011;19224;52.462;16.898;2023-11-18T10:23:19;17.57;;;11.12;;
32872;SDS011;19224;52.462;16.898;2023-11-18T10:25:53;17.55;;;11.05;;
32872;SDS011;19224;52.462;16.898;2023-11-18T10:28:28;17.90;;;11.18;;
32872;SDS011;19224;52.462;16.898;2023-11-18T10:31:05;17.80;;;10.78;;
32872;SDS011;19224;52.462;16.898;2023-11-18T10:33:41;16.20;;;10.65;;
32872;SDS011;19224;52.462;16.898;2023-11-18T10:36:19;16.10;;;11.00;;
32872;SDS011;19224;52.462;16.898;2023-11-18T10:38:51;17.67;;;11.70;;
32872;SDS011;19224;52.462;16.898;2023-11-18T10:41:24;17.65;;;11.20;;
32872;SDS011;19224;52.462;16.898;2023-11-18T10:44:07;17.00;;;11.33;;
32872;SDS011;19224;52.462;16.898;2023-11-18T10:46:52;37.03;;;18.92;;
32872;SDS011;19224;52.462;16.898;2023-11-18T10:49:31;20.77;;;12.70;;
32872;SDS011;19224;52.462;16.898;2023-11-18T10:51:58;17.70;;;10.65;;
32872;SDS011;19224;52.462;16.898;2023-11-18T10:54:33;17.07;;;11.28;;
32872;SDS011;19224;52.462;16.898;2023-11-18T10:57:04;20.77;;;10.82;;
32872;SDS011;19224;52.462;16.898;2023-11-18T10:59:39;19.98;;;10.78;;
32872;SDS011;19224;52.462;16.898;2023-11-18T11:02:18;17.90;;;11.12;;
32872;SDS011;19224;52.462;16.898;2023-11-18T11:04:50;18.27;;;11.63;;
32872;SDS011;19224;52.462;16.898;2023-11-18T11:07:20;17.55;;;10.95;;
32872;SDS011;19224;52.462;16.898;2023-11-18T11:09:52;16.50;;;10.68;;
32872;SDS011;19224;52.462;16.898;2023-11-18T11:12:25;15.48;;;10.28;;
32872;SDS011;19224;52.462;16.898;2023-11-18T11:14:59;19.98;;;10.88;;
32872;SDS011;19224;52.462;16.898;2023-11-18T11:17:37;21.45;;;12.80;;
32872;SDS011;19224;52.462;16.898;2023-11-18T11:20:10;17.07;;;11.15;;
32872;SDS011;19224;52.462;16.898;2023-11-18T11:22:56;20.60;;;12.30;;
32872;SDS011;19224;52.462;16.898;2023-11-18T11:25:55;20.05;;;13.25;;
32872;SDS011;19224;52.462;16.898;2023-11-18T11:28:49;20.23;;;12.80;;
32872;SDS011;19224;52.462;16.898;2023-11-18T11:31:40;22.15;;;13.32;;
32872;SDS011;19224;52.462;16.898;2023-11-18T11:36:51;20.65;;;12.30;;
32872;SDS011;19224;52.462;16.898;2023-11-18T11:39:22;20.88;;;12.47;;
32872;SDS011;19224;52.462;16.898;2023-11-18T11:41:58;22.52;;;12.50;;
32872;SDS011;19224;52.462;16.898;2023-11-18T11:44:30;23.60;;;13.70;;
32872;SDS011;19224;52.462;16.898;2023-11-18T11:47:03;26.12;;;16.00;;
32872;SDS011;19224;52.462;16.898;2023-11-18T11:49:41;48.13;;;26.42;;
32872;SDS011;19224;52.462;16.898;2023-11-18T11:52:18;33.80;;;20.62;;
32872;SDS011;19224;52.462;16.898;2023-11-18T11:57:52;23.77;;;14.60;;
32872;SDS011;19224;52.462;16.898;2023-11-18T12:00:35;21.82;;;13.03;;
32872;SDS011;19224;52.462;16.898;2023-11-18T12:03:08;21.82;;;13.28;;
32872;SDS011;19224;52.462;16.898;2023-11-18T12:05:42;23.35;;;14.63;;
32872;SDS011;19224;52.462;16.898;2023-11-18T12:08:16;23.87;;;12.90;;
32872;SDS011;19224;52.462;16.898;2023-11-18T12:10:51;19.52;;;12.82;;
32872;SDS011;19224;52.462;16.898;2023-11-18T12:13:24;21.85;;;13.38;;
32872;SDS011;19224;52.462;16.898;2023-11-18T12:15:55;22.75;;;12.40;;
32872;SDS011;19224;52.462;16.898;2023-11-18T12:18:25;18.17;;;12.15;;
32872;SDS011;19224;52.462;16.898;2023-11-18T12:20:57;22.05;;;12.25;;
32872;SDS011;19224;52.462;16.898;2023-11-18T12:23:30;19.52;;;12.05;;
32872;SDS011;19224;52.462;16.898;2023-11-18T12:26:02;19.65;;;11.60;;
32872;SDS011;19224;52.462;16.898;2023-11-18T12:28:38;17.57;;;11.88;;
32872;SDS011;19224;52.462;16.898;2023-11-18T12:31:11;18.32;;;11.33;;
32872;SDS011;19224;52.462;16.898;2023-11-18T12:43:02;17.77;;;10.82;;
32872;SDS011;19224;52.462;16.898;2023-11-18T12:48:16;15.45;;;9.98;;
32872;SDS011;19224;52.462;16.898;2023-11-18T12:50:51;15.88;;;10.25;;
32872;SDS011;19224;52.462;16.898;2023-11-18T12:53:23;15.35;;;9.60;;
32872;SDS011;19224;52.462;16.898;2023-11-18T12:55:56;18.10;;;10.95;;
32872;SDS011;19224;52.462;16.898;2023-11-18T12:58:29;16.35;;;9.78;;
32872;SDS011;19224;52.462;16.898;2023-11-18T13:01:01;16.48;;;10.13;;
32872;SDS011;19224;52.462;16.898;2023-11-18T13:03:32;15.93;;;10.40;;
32872;SDS011;19224;52.462;16.898;2023-11-18T13:06:05;16.07;;;9.15;;
32872;SDS011;19224;52.462;16.898;2023-11-18T13:08:35;14.38;;;8.98;;
32872;SDS011;19224;52.462;16.898;2023-11-18T13:11:07;17.02;;;10.25;;
32872;SDS011;19224;52.462;16.898;2023-11-18T13:13:39;14.85;;;9.05;;
32872;SDS011;19224;52.462;16.898;2023-11-18T13:16:09;14.55;;;8.48;;
32872;SDS011;19224;52.462;16.898;2023-11-18T13:18:48;14.23;;;9.28;;
32872;SDS011;19224;52.462;16.898;2023-11-18T13:21:16;15.95;;;10.00;;
32872;SDS011;19224;52.462;16.898;2023-11-18T13:23:53;16.27;;;10.03;;
32872;SDS011;19224;52.462;16.898;2023-11-18T13:26:23;17.90;;;10.10;;
32872;SDS011;19224;52.462;16.898;2023-11-18T13:28:54;16.37;;;9.63;;
32872;SDS011;19224;52.462;16.898;2023-11-18T13:31:24;15.23;;;9.80;;
32872;SDS011;19224;52.462;16.898;2023-11-18T13:33:54;15.53;;;9.80;;
32872;SDS011;19224;52.462;16.898;2023-11-18T13:36:25;18.85;;;10.32;;
32872;SDS011;19224;52.462;16.898;2023-11-18T13:38:55;17.60;;;10.65;;
32872;SDS011;19224;52.462;16.898;2023-11-18T13:41:29;18.70;;;10.23;;
32872;SDS011;19224;52.462;16.898;2023-11-18T13:44:00;19.70;;;11.65;;
32872;SDS011;19224;52.462;16.898;2023-11-18T13:46:30;20.80;;;11.97;;
32872;SDS011;19224;52.462;16.898;2023-11-18T13:49:01;18.82;;;12.18;;
32872;SDS011;19224;52.462;16.898;2023-11-18T13:51:33;20.37;;;12.45;;
32872;SDS011;19224;52.462;16.898;2023-11-18T13:54:04;20.90;;;12.65;;
32872;SDS011;19224;52.462;16.898;2023-11-18T13:56:37;22.90;;;12.70;;
32872;SDS011;19224;52.462;16.898;2023-11-18T13:59:08;23.80;;;13.43;;
32872;SDS011;19224;52.462;16.898;2023-11-18T14:01:39;24.02;;;14.10;;
32872;SDS011;19224;52.462;16.898;2023-11-18T14:04:10;27.62;;;14.95;;
32872;SDS011;19224;52.462;16.898;2023-11-18T14:06:42;22.13;;;13.20;;
32872;SDS011;19224;52.462;16.898;2023-11-18T14:09:13;22.77;;;13.85;;
32872;SDS011;19224;52.462;16.898;2023-11-18T14:11:44;23.27;;;14.73;;
32872;SDS011;19224;52.462;16.898;2023-11-18T14:14:14;22.80;;;13.08;;
32872;SDS011;19224;52.462;16.898;2023-11-18T14:16:45;19.45;;;12.58;;
32872;SDS011;19224;52.462;16.898;2023-11-18T14:19:16;22.20;;;12.47;;
32872;SDS011;19224;52.462;16.898;2023-11-18T14:21:46;20.60;;;11.12;;
32872;SDS011;19224;52.462;16.898;2023-11-18T14:24:17;17.92;;;11.57;;
32872;SDS011;19224;52.462;16.898;2023-11-18T14:26:47;20.27;;;11.57;;
32872;SDS011;19224;52.462;16.898;2023-11-18T14:29:18;22.15;;;12.47;;
32872;SDS011;19224;52.462;16.898;2023-11-18T14:31:48;22.15;;;12.23;;
32872;SDS011;19224;52.462;16.898;2023-11-18T14:34:20;22.82;;;12.93;;
32872;SDS011;19224;52.462;16.898;2023-11-18T14:36:51;25.05;;;13.08;;
32872;SDS011;19224;52.462;16.898;2023-11-18T14:39:22;23.75;;;12.73;;
32872;SDS011;19224;52.462;16.898;2023-11-18T14:41:53;24.87;;;14.30;;
32872;SDS011;19224;52.462;16.898;2023-11-18T14:44:23;22.62;;;12.85;;
32872;SDS011;19224;52.462;16.898;2023-11-18T14:46:54;21.70;;;13.30;;
32872;SDS011;19224;52.462;16.898;2023-11-18T14:49:24;23.77;;;13.30;;
32872;SDS011;19224;52.462;16.898;2023-11-18T14:51:56;29.87;;;13.83;;
32872;SDS011;19224;52.462;16.898;2023-11-18T14:54:26;25.17;;;13.93;;
32872;SDS011;19224;52.462;16.898;2023-11-18T14:56:57;26.33;;;14.28;;
32872;SDS011;19224;52.462;16.898;2023-11-18T14:59:28;24.37;;;13.55;;